• Join FlightAware (Why Join?)
  • Login
  • US Flag 
02:21PM EDT


 

Airport Tracker/Info


-or-


 

Live Flight TrackerFlight Track Log ✈ UAL582 ✈ 06-Jul-2013 ✈ KIAH - KORD

Flight Track Log - Related Links

Times and Time Zones

All times are in EDT time to prevent confusion due to time zone crossing. See the UAL582 flight status page for this flight to view local times or setup timezone preferences in your user account.

Time Position Orientation Groundspeed Altitude Reporting Facility
EDT Latitude Longitude Course Direction KTS MPH feet Rate Location/Type
05:43PM 29.9614 -95.3411 41° Northeast 153 176 900  Level Houston Center
05:44PM 29.9936 -95.3036 45° Northeast 238 274 2,700 1,620 Climbing Houston Center
05:45PM 30.0319 -95.3042 359° North 240 276 3,900 1,860 Climbing Houston Center
05:46PM 30.3902 -95.1716 23° Northeast  Level FlightAware Approximate
05:46PM 30.1242 -95.3039 360° North 273 314 6,000  Level Houston Center
05:47PM 30.4877 -95.1174 27° Northeast  Level FlightAware Approximate
05:47PM 30.2003 -95.2822 14° North 287 330 9,700  Level Houston Center
05:48PM 30.5857 -95.0643 41° Northeast  Level FlightAware Approximate
05:48PM 30.2775 -95.2408 25° Northeast 313 360 11,800  Level Houston Center
05:49PM 30.3669 -95.1936 24° Northeast 350 403 14,500 2,520 Climbing Houston Center
05:50PM 30.4606 -95.1431 25° Northeast 355 409 17,000 2,340 Climbing Houston Center
05:51PM 30.5550 -95.0964 23° Northeast 367 422 19,300 1,980 Climbing Houston Center
05:52PM 30.6483 -95.0386 28° Northeast 378 435 21,200 1,800 Climbing Houston Center
05:53PM 30.7439 -94.9797 28° Northeast 388 447 23,000 1,800 Climbing Houston Center
05:54PM 30.8417 -94.9189 28° Northeast 396 456 24,900 1,800 Climbing Houston Center
05:55PM 30.9594 -94.8447 28° Northeast 404 465 26,800 1,740 Climbing Houston Center
05:56PM 31.0586 -94.7825 28° Northeast 405 466 28,500 1,260 Climbing Houston Center
05:57PM 31.1692 -94.7144 28° Northeast 430 495 29,400 1,260 Climbing Houston Center
05:58PM 31.2725 -94.6422 31° Northeast 436 502 31,200 1,380 Climbing Houston Center
05:59PM 31.3606 -94.5794 31° Northeast 430 495 32,300 1,260 Climbing Houston Center
06:00PM 31.4819 -94.4964 30° Northeast 423 487 33,900 1,260 Climbing Houston Center
06:01PM 31.5819 -94.4272 31° Northeast 420 483 35,000 1,020 Climbing Houston Center
06:02PM 31.6847 -94.3561 30° Northeast 425 489 36,100 900 Climbing Houston Center
06:03PM 31.7881 -94.2836 31° Northeast 430 495 36,900 780 Climbing Houston Center
06:04PM 31.8928 -94.2100 31° Northeast 434 499 37,800 840 Climbing Houston Center
06:05PM 32.0033 -94.1511 24° Northeast 436 502 38,700 540 Climbing Houston Center
06:06PM 32.1406 -94.0939 19° North 429 494 39,000 120 Climbing Fort Worth Center
06:07PM 32.2372 -94.0436 24° Northeast 429 494 39,000  Level Fort Worth Center
06:08PM 32.3508 -93.9953 20° North 429 494 39,000  Level Fort Worth Center
06:09PM 32.4642 -93.9467 20° North 424 488 39,000  Level Fort Worth Center
06:10PM 32.5797 -93.8931 21° North 429 494 39,000  Level Fort Worth Center
06:11PM 32.6931 -93.8439 20° North 429 494 39,000  Level Fort Worth Center
06:12PM 32.8064 -93.7925 21° North 429 494 39,000  Level Fort Worth Center
06:13PM 32.9197 -93.7433 20° North 429 494 39,000  Level Fort Worth Center
06:14PM 33.0331 -93.6917 21° North 429 494 39,000  Level Fort Worth Center
06:15PM 33.1483 -93.6397 21° North 429 494 39,000  Level Fort Worth Center
06:16PM 33.2636 -93.5875 21° North 429 494 39,000  Level Fort Worth Center
06:17PM 33.3831 -93.5353 20° North 442 509 39,100  Climbing Fort Worth Center
06:18PM 33.5108 -93.4797 20° North 442 509 39,100 -60 Level Fort Worth Center
06:19PM 33.6239 -93.4297 20° North 442 509 39,000 -60 Descending Fort Worth Center
06:20PM 33.6994 -93.3983 19° North 442 509 39,000  Level Memphis Center
06:21PM 33.8136 -93.3472 20° North 458 527 39,000  Level Memphis Center
06:22PM 33.9275 -93.2936 21° North 445 512 39,000  Level Memphis Center
06:23PM 34.0414 -93.2450 19° North 437 503 39,000  Level Memphis Center
06:24PM 34.1553 -93.1908 21° North 432 497 39,100  Climbing Memphis Center
06:25PM 34.2692 -93.1369 21° North 432 497 39,000 -60 Descending Memphis Center
06:26PM 34.3661 -93.0897 22° Northeast 427 491 39,000  Level Memphis Center
06:27PM 34.4822 -93.0356 21° North 427 491 39,000  Level Memphis Center
06:28PM 34.5939 -92.9833 21° North 427 491 39,000  Level Memphis Center
06:29PM 34.7056 -92.9289 22° Northeast 427 491 39,000  Level Memphis Center
06:30PM 34.8150 -92.8817 20° North 427 491 39,000  Level Memphis Center
06:31PM 34.9267 -92.8292 21° North 427 491 39,000  Level Memphis Center
06:32PM 35.0361 -92.7767 21° North 421 484 39,000  Level Memphis Center
06:33PM 35.1603 -92.7217 20° North 421 484 39,000  Level Memphis Center
06:34PM 35.2572 -92.6711 23° Northeast 421 484 39,000  Level Memphis Center
06:35PM 35.3708 -92.6156 22° Northeast 421 484 39,000  Level Memphis Center
06:36PM 35.4803 -92.5675 20° North 421 484 39,000  Level Memphis Center
06:37PM 35.5917 -92.5144 21° North 421 484 39,100  Climbing Memphis Center
06:38PM 35.7008 -92.4636 21° North 421 484 39,000 -60 Descending Memphis Center
06:39PM 35.8122 -92.4100 21° North 416 479 39,000  Level Memphis Center
06:40PM 35.9322 -92.3542 21° North 416 479 39,000  Level Memphis Center
06:41PM 36.0392 -92.3028 21° North 416 479 39,000  Level Memphis Center
06:42PM 36.1464 -92.2486 22° Northeast 416 479 39,000  Level Memphis Center
06:43PM 36.2556 -92.1997 20° North 416 479 39,000  Level Memphis Center
06:44PM 36.3628 -92.1481 21° North 416 479 39,000  Level Memphis Center
06:45PM 36.4697 -92.0961 21° North 416 479 39,000  Level Memphis Center
06:46PM 36.5619 -92.0492 22° Northeast 416 479 39,000  Level Memphis Center
06:47PM 36.7150 -91.9694 23° Northeast 414 476 39,000  Level Kansas City Center
06:48PM 36.8225 -91.9167 21° North 414 476 39,000  Level Kansas City Center
06:49PM 36.9308 -91.8631 22° Northeast 417 480 39,100  Climbing Kansas City Center
06:50PM 37.0389 -91.8089 22° Northeast 418 481 39,000 -60 Descending Kansas City Center
06:51PM 37.1436 -91.7586 21° North 410 472 39,000  Level Kansas City Center
06:52PM 37.2489 -91.7092 20° North 405 466 39,000  Level Kansas City Center
06:53PM 37.3542 -91.6556 22° Northeast 406 467 39,000  Level Kansas City Center
06:54PM 37.4586 -91.6019 22° Northeast 406 467 39,000  Level Kansas City Center
06:55PM 37.5844 -91.5381 22° Northeast 407 468 39,000  Level Kansas City Center
06:56PM 37.6900 -91.4850 22° Northeast 407 468 39,000  Level Kansas City Center
06:57PM 37.7981 -91.4306 22° Northeast 412 474 39,000  Level Kansas City Center
06:59PM 37.9064 -91.3761 22° Northeast 417 480 39,000  Level Kansas City Center
07:00PM 38.0136 -91.3217 22° Northeast 416 479 39,000  Level Kansas City Center
07:01PM 38.1203 -91.2669 22° Northeast 415 478 39,000  Level Kansas City Center
07:02PM 38.2297 -91.2117 22° Northeast 415 478 39,000  Level Kansas City Center
07:03PM 38.3356 -91.1567 22° Northeast 412 474 39,000  Level Kansas City Center
07:04PM 38.4442 -91.1019 22° Northeast 416 479 39,000  Level Kansas City Center
07:05PM 38.5550 -91.0450 22° Northeast 423 487 39,000  Level Kansas City Center
07:06PM 38.6864 -90.9767 22° Northeast 423 487 39,000  Level Kansas City Center
07:07PM 38.7911 -90.9206 23° Northeast 411 473 39,000  Level Kansas City Center
07:08PM 38.8958 -90.8644 23° Northeast 406 467 39,000  Level Kansas City Center
07:09PM 39.0003 -90.8092 22° Northeast 403 464 39,000 -900 Level Kansas City Center
07:10PM 39.1117 -90.7753 13° North 413 475 37,200 -1,560 Descending Kansas City Center
07:11PM 39.2208 -90.7636 North 395 455 35,900 -1,080 Descending Kansas City Center
07:12PM 39.3269 -90.7844 351° North 389 448 35,000 -1,020 Descending Kansas City Center
07:13PM 39.4331 -90.8144 348° North 392 451 33,900 -1,020 Descending Kansas City Center
07:14PM 39.5367 -90.8397 349° North 383 441 33,000 -480 Descending Kansas City Center
07:15PM 39.6444 -90.8681 349° North 390 449 33,000  Level Kansas City Center
07:16PM 39.7667 -90.8714 359° North 400 460 33,000  Level Kansas City Center
07:17PM 39.8603 -90.7958 32° Northeast 398 458 33,000  Level Kansas City Center
07:18PM 39.9528 -90.7119 35° Northeast 403 464 33,000  Level Kansas City Center
07:19PM 40.0444 -90.6261 36° Northeast 405 466 33,000  Level Kansas City Center
07:20PM 40.1406 -90.5419 34° Northeast 411 473 33,000  Level Kansas City Center
07:21PM 40.2681 -90.4764 21° North 414 476 33,000  Level Kansas City Center
07:22PM 40.3750 -90.4342 17° North 405 466 33,000  Level Kansas City Center
07:23PM 40.4608 -90.3911 21° North 407 468 33,000 -360 Level Chicago Center
07:24PM 40.5478 -90.2936 40° Northeast 413 475 32,400 -1,080 Descending Chicago Center
07:25PM 40.6378 -90.1758 45° Northeast 425 489 30,800 -1,500 Descending Chicago Center
07:26PM 40.7308 -90.0739 40° Northeast 436 502 29,300 -1,320 Descending Chicago Center
07:27PM 40.8247 -89.9775 38° Northeast 429 494 28,200 -1,200 Descending Chicago Center
07:28PM 40.9100 -89.8772 42° Northeast 419 482 26,900 -1,320 Descending Chicago Center
07:29PM 41.0078 -89.7675 40° Northeast 444 511 25,500 -1,200 Descending Chicago Center
07:30PM 41.1008 -89.6594 41° Northeast 443 510 24,500 -1,200 Descending Chicago Center
07:31PM 41.1811 -89.5408 48° Northeast 435 501 23,100 -1,620 Descending Chicago Center
07:32PM 41.2367 -89.4031 62° Northeast 421 484 21,200 -1,920 Descending Chicago Center
07:33PM 41.2889 -89.2717 62° Northeast 404 465 19,200 -2,040 Descending Chicago Center
07:34PM 41.3408 -89.1381 63° Northeast 361 415 17,000 -2,100 Descending Chicago Center
07:35PM 41.3469 -89.0114 86° East 352 405 15,000 -1,920 Descending Chicago Center
07:36PM 41.3483 -88.8828 89° East 349 402 13,100 -1,800 Descending Chicago Center
07:37PM 41.3631 -88.7658 80° East 338 389 11,400 -1,080 Descending Chicago Center
07:38PM 41.4406 -88.6617 45° Northeast 333 383 11,000 -240 Descending Chicago Center
07:39PM 41.5058 -88.5733 45° Northeast 335 386 11,000 -300 Level Chicago Center
07:40PM 41.5683 -88.4911 45° Northeast 317 365 10,400 -1,020 Descending Chicago Center
07:41PM 41.6253 -88.4125 46° Northeast 297 342 9,000 -1,200 Descending Chicago Center
07:42PM 41.6814 -88.3378 45° Northeast 288 331 8,000 -960 Descending Chicago Center
07:43PM 41.7561 -88.3214 North 288 331 7,100 -540 Descending Chicago Center
07:44PM 41.8331 -88.3222 360° North 279 321 7,000 -660 Descending Chicago Center
07:45PM 41.9217 -88.3022 10° North 272 313 5,800 -1,200 Descending Chicago Center
07:47PM 41.9653 -88.2322 50° Northeast 267 307 4,600 -1,200 Descending Chicago Center